Date, South Dakota
Current Conditions -  °F | °C
As of 6:53 PM on Saturday 22 Nov 2014 (Local Time) from KHEI Reporting Station
Broken Clouds Broken Clouds  
Wind Chill: 32°   Ceiling: 9500
Heat Index: 37°   Visibility: 10mi
Dew Point: 33°   Wind: 6mph
Humidity: 86%   Direction: 170°S
Pressure: 29.38"   Gusts: NA
Location:  45.6029°N, 102.827°W
Report Text: KHEI 230153Z AUTO 17005KT 10SM BKN095 03/01 A2938 RMK AO2 SLP970 T00280006
Loading
Personal Weather Stations






























Interactive Weather Map New forecast layout! Learn more

10-Day Weather Forecast

Advertisements
Track Severe Weather on mobile